Time;durP1;ratioP1;P1;durP2;ratioP2;P2;SDS_P1;SDS_P2;PMS_P1;PMS_P2;Temp;Humidity;BMP_temperature;BMP_pressure;BME280_temperature;BME280_humidity;BME280_pressure;Samples;Min_cycle;Max_cycle;Signal;HPM_P1;HPM_P2
2024/01/13 00:01:52;;;;;;;0.50;0.45;;;2.90;99.90;;;;;;5094793;28;20477;-86
2024/01/13 00:04:18;;;;;;;0.00;0.00;;;2.90;99.90;;;;;;5093761;28;20089;-86
2024/01/13 00:06:43;;;;;;;0.80;0.65;;;2.90;99.90;;;;;;5067918;28;20056;-86
2024/01/13 00:09:10;;;;;;;0.00;0.00;;;2.90;99.90;;;;;;5096530;28;20551;-86
2024/01/13 00:11:35;;;;;;;0.00;0.00;;;3.00;1.00;;;;;;5092815;28;20089;-86
2024/01/13 00:14:01;;;;;;;0.80;0.50;;;2.90;1.00;;;;;;5088154;28;20091;-86
2024/01/13 00:16:27;;;;;;;0.10;0.10;;;3.00;1.00;;;;;;5087591;28;20040;-86
2024/01/13 00:18:52;;;;;;;0.00;0.00;;;3.00;1.00;;;;;;5067029;28;20051;-86
2024/01/13 00:21:18;;;;;;;0.10;0.10;;;3.00;1.00;;;;;;5069853;28;20663;-86
2024/01/13 00:23:44;;;;;;;0.00;0.00;;;3.00;1.00;;;;;;5092013;28;20505;-86
2024/01/13 00:26:09;;;;;;;0.00;0.00;;;3.00;1.00;;;;;;5058305;28;20052;-86
2024/01/13 00:28:35;;;;;;;0.00;0.00;;;3.00;1.00;;;;;;5090071;28;20500;-86
2024/01/13 00:31:01;;;;;;;0.98;0.95;;;3.00;1.00;;;;;;5065110;28;20051;-86
2024/01/13 00:33:26;;;;;;;0.00;0.00;;;3.00;1.00;;;;;;5090861;28;20040;-86
2024/01/13 00:35:52;;;;;;;0.00;0.00;;;3.00;1.00;;;;;;5090836;28;20032;-87
2024/01/13 00:38:17;;;;;;;0.13;0.13;;;3.00;99.90;;;;;;5064308;28;20135;-86
2024/01/13 00:40:44;;;;;;;0.75;0.65;;;3.00;99.90;;;;;;5091053;28;20047;-86
2024/01/13 00:43:09;;;;;;;0.00;0.00;;;3.00;99.90;;;;;;5092671;28;20070;-86
2024/01/13 00:45:35;;;;;;;1.05;1.00;;;3.80;1.00;;;;;;5092683;28;20513;-86
2024/01/13 00:48:01;;;;;;;0.05;0.05;;;3.10;1.00;;;;;;5091509;28;20447;-86
2024/01/13 00:50:27;;;;;;;0.00;0.00;;;3.10;99.90;;;;;;5091468;28;20054;-87
2024/01/13 00:52:52;;;;;;;0.00;0.00;;;3.10;99.90;;;;;;5091624;28;20482;-87
2024/01/13 00:55:18;;;;;;;0.30;0.30;;;3.10;99.90;;;;;;5043489;28;20052;-87
2024/01/13 00:57:44;;;;;;;0.03;0.03;;;3.10;1.00;;;;;;5090662;28;20498;-86
2024/01/13 01:00:10;;;;;;;0.00;0.00;;;3.10;1.00;;;;;;5098634;28;20039;-86
2024/01/13 01:02:36;;;;;;;0.00;0.00;;;3.10;1.00;;;;;;5090936;28;20051;-86
2024/01/13 01:05:02;;;;;;;0.13;0.13;;;3.10;1.00;;;;;;5056863;28;20114;-87
2024/01/13 01:07:28;;;;;;;0.17;0.17;;;3.10;1.00;;;;;;5090257;28;20413;-86
2024/01/13 01:09:53;;;;;;;0.05;0.05;;;3.40;1.00;;;;;;5064009;28;20550;-87
2024/01/13 01:12:19;;;;;;;0.00;0.00;;;3.20;1.00;;;;;;5088726;28;20043;-87
2024/01/13 01:14:44;;;;;;;0.85;0.82;;;3.20;1.00;;;;;;5091864;28;20071;-86
2024/01/13 01:17:10;;;;;;;0.20;0.20;;;3.10;1.00;;;;;;5093718;28;20387;-87
2024/01/13 01:19:36;;;;;;;0.77;0.57;;;3.10;1.00;;;;;;5092762;28;20417;-86
2024/01/13 01:22:01;;;;;;;0.00;0.00;;;3.10;1.00;;;;;;5089886;28;20079;-87
2024/01/13 01:24:27;;;;;;;0.00;0.00;;;3.10;1.00;;;;;;5088239;28;20043;-87
2024/01/13 01:26:52;;;;;;;2.95;0.15;;;3.00;1.00;;;;;;5092125;28;20047;-86
2024/01/13 01:29:18;;;;;;;0.00;0.00;;;3.00;1.00;;;;;;5090474;28;20089;-86
2024/01/13 01:31:43;;;;;;;0.10;0.10;;;3.00;1.00;;;;;;5090573;28;20469;-87
2024/01/13 01:34:09;;;;;;;0.10;0.10;;;3.00;1.00;;;;;;5061420;28;20052;-87
2024/01/13 01:36:34;;;;;;;0.22;0.10;;;3.00;1.00;;;;;;5082202;28;20101;-87
2024/01/13 01:39:00;;;;;;;0.10;0.10;;;3.00;1.00;;;;;;5091225;28;20115;-87
2024/01/13 01:41:26;;;;;;;0.40;0.40;;;3.10;1.00;;;;;;5093685;28;20600;-86
2024/01/13 01:43:51;;;;;;;0.20;0.20;;;3.10;1.00;;;;;;5066805;28;20076;-86
2024/01/13 01:46:19;;;;;;;0.00;0.00;;;3.10;1.00;;;;;;5092581;28;20494;-86
2024/01/13 01:48:46;;;;;;;0.00;0.00;;;3.10;1.00;;;;;;5093502;28;20036;-87
2024/01/13 01:51:13;;;;;;;0.00;0.00;;;3.10;1.00;;;;;;5066585;28;20131;-87
2024/01/13 01:53:40;;;;;;;0.00;0.00;;;3.10;1.00;;;;;;5092983;28;20493;-86
2024/01/13 01:56:10;;;;;;;0.03;0.03;;;3.10;1.00;;;;;;5093151;28;20481;-86
2024/01/13 01:58:36;;;;;;;0.00;0.00;;;3.50;1.00;;;;;;5093502;28;20417;-87
2024/01/13 02:01:05;;;;;;;0.00;0.00;;;3.10;1.00;;;;;;5068529;28;20048;-86
2024/01/13 02:03:31;;;;;;;0.00;0.00;;;3.20;1.00;;;;;;5098411;28;20513;-87
2024/01/13 02:05:58;;;;;;;0.20;0.20;;;3.10;1.00;;;;;;5057320;28;20798;-87
2024/01/13 02:08:23;;;;;;;0.00;0.00;;;3.00;1.00;;;;;;5090577;28;20044;-87
2024/01/13 02:10:49;;;;;;;0.00;0.00;;;3.10;1.00;;;;;;5081387;28;20105;-86
2024/01/13 02:13:15;;;;;;;0.00;0.00;;;3.10;1.00;;;;;;5088007;28;20537;-86
2024/01/13 02:15:41;;;;;;;0.00;0.00;;;3.10;9.00;;;;;;5066642;28;20056;-87
2024/01/13 02:18:06;;;;;;;0.00;0.00;;;3.20;39.60;;;;;;5087447;28;20066;-87
2024/01/13 02:20:32;;;;;;;0.00;0.00;;;3.10;26.80;;;;;;5085444;28;20181;-87
2024/01/13 02:22:57;;;;;;;0.00;0.00;;;3.20;32.10;;;;;;5065386;28;20096;-87
2024/01/13 02:25:23;;;;;;;0.00;0.00;;;3.10;39.50;;;;;;5091898;28;20461;-87
2024/01/13 02:27:49;;;;;;;0.47;0.45;;;3.10;43.00;;;;;;5093155;28;20489;-87
2024/01/13 02:30:14;;;;;;;0.00;0.00;;;3.10;35.30;;;;;;5092881;28;20035;-87
2024/01/13 02:32:40;;;;;;;0.00;0.00;;;3.10;33.40;;;;;;5097400;28;20394;-86
2024/01/13 02:35:06;;;;;;;1.08;0.80;;;3.10;26.10;;;;;;5098748;28;20039;-86
2024/01/13 02:37:31;;;;;;;0.17;0.17;;;3.10;40.60;;;;;;5093413;28;20044;-87
2024/01/13 02:39:57;;;;;;;0.00;0.00;;;3.10;54.50;;;;;;5095910;28;20442;-87
2024/01/13 02:42:22;;;;;;;0.10;0.10;;;3.00;45.30;;;;;;5093269;28;20070;-87
2024/01/13 02:44:48;;;;;;;0.00;0.00;;;3.10;82.70;;;;;;5097135;28;20134;-87
2024/01/13 02:47:14;;;;;;;0.00;0.00;;;3.00;63.40;;;;;;5103733;28;20054;-87
2024/01/13 02:49:39;;;;;;;0.65;0.65;;;3.00;74.70;;;;;;5093394;28;20071;-87
2024/01/13 02:52:05;;;;;;;0.03;0.03;;;3.00;77.20;;;;;;5092946;28;20134;-87
2024/01/13 02:54:31;;;;;;;0.10;0.10;;;2.90;62.20;;;;;;5093682;28;20382;-87
2024/01/13 02:56:56;;;;;;;0.00;0.00;;;2.90;61.50;;;;;;5048147;28;20177;-87
2024/01/13 02:59:22;;;;;;;0.10;0.10;;;2.80;49.20;;;;;;5093950;28;20051;-87
2024/01/13 03:01:47;;;;;;;0.00;0.00;;;2.70;49.90;;;;;;5096399;28;20087;-87
2024/01/13 03:04:13;;;;;;;0.00;0.00;;;2.70;59.70;;;;;;5049017;28;20044;-87
2024/01/13 03:06:39;;;;;;;0.10;0.10;;;2.70;93.80;;;;;;5088073;28;20083;-87
2024/01/13 03:09:05;;;;;;;0.00;0.00;;;2.80;92.90;;;;;;5074047;28;20063;-87
2024/01/13 03:11:30;;;;;;;0.00;0.00;;;2.80;98.40;;;;;;5099446;28;20090;-87
2024/01/13 03:13:56;;;;;;;2.92;1.17;;;2.80;99.90;;;;;;5093029;28;20527;-87
2024/01/13 03:16:22;;;;;;;0.00;0.00;;;2.90;99.90;;;;;;5059373;28;20080;-87
2024/01/13 03:18:47;;;;;;;0.00;0.00;;;3.00;99.90;;;;;;5084540;28;20040;-87
2024/01/13 03:21:13;;;;;;;3.20;1.65;;;3.00;99.90;;;;;;5096086;28;20083;-87
2024/01/13 03:23:38;;;;;;;0.00;0.00;;;3.00;99.90;;;;;;5095435;28;20124;-86
2024/01/13 03:26:04;;;;;;;0.43;0.43;;;3.00;99.90;;;;;;5062946;28;20054;-87
2024/01/13 03:28:30;;;;;;;0.00;0.00;;;3.10;99.90;;;;;;5087597;28;20249;-87
2024/01/13 03:30:56;;;;;;;0.45;0.45;;;3.10;99.90;;;;;;5095474;28;20040;-87
2024/01/13 03:33:21;;;;;;;0.10;0.10;;;3.10;99.90;;;;;;5072367;28;20123;-86
2024/01/13 03:35:47;;;;;;;0.00;0.00;;;3.10;99.90;;;;;;5091689;28;20068;-86
2024/01/13 03:38:12;;;;;;;0.00;0.00;;;3.10;99.90;;;;;;5067589;28;20182;-87
2024/01/13 03:40:38;;;;;;;0.10;0.10;;;3.10;99.90;;;;;;5100027;28;20046;-87
2024/01/13 03:43:04;;;;;;;0.00;0.00;;;3.00;99.90;;;;;;5094496;28;20055;-87
2024/01/13 03:45:29;;;;;;;0.00;0.00;;;3.10;99.90;;;;;;5096397;28;20043;-86
2024/01/13 03:47:55;;;;;;;0.00;0.00;;;3.10;99.90;;;;;;5058244;28;20556;-87
2024/01/13 03:50:20;;;;;;;0.10;0.10;;;3.60;99.90;;;;;;5096669;28;20054;-87
2024/01/13 03:52:46;;;;;;;0.00;0.00;;;3.10;99.90;;;;;;5094850;28;20651;-87
2024/01/13 03:55:12;;;;;;;0.73;0.28;;;3.10;99.90;;;;;;5066418;28;20040;-87
2024/01/13 03:57:37;;;;;;;0.08;0.08;;;3.10;99.90;;;;;;5094736;28;20048;-86
2024/01/13 04:00:03;;;;;;;0.00;0.00;;;3.10;99.90;;;;;;5091642;28;20087;-86
2024/01/13 04:02:29;;;;;;;0.00;0.00;;;3.10;99.90;;;;;;5096370;28;20047;-86
2024/01/13 04:04:54;;;;;;;0.00;0.00;;;3.10;99.90;;;;;;5064518;28;20089;-87
2024/01/13 04:07:20;;;;;;;0.00;0.00;;;3.10;99.90;;;;;;5064841;28;20040;-87
2024/01/13 04:09:45;;;;;;;0.00;0.00;;;3.10;99.90;;;;;;5090849;28;20608;-86
2024/01/13 04:12:11;;;;;;;1.55;0.88;;;3.10;99.90;;;;;;5094705;28;20447;-86
2024/01/13 04:14:37;;;;;;;2.53;1.45;;;3.20;99.90;;;;;;5064792;28;20044;-86
2024/01/13 04:17:02;;;;;;;0.20;0.20;;;3.10;99.90;;;;;;5098222;28;20047;-87
2024/01/13 04:19:28;;;;;;;1.15;0.55;;;3.10;99.90;;;;;;5066771;28;20079;-87
2024/01/13 04:21:53;;;;;;;0.25;0.25;;;3.10;99.90;;;;;;5094953;28;20408;-86
2024/01/13 04:24:19;;;;;;;0.00;0.00;;;3.10;99.90;;;;;;5081111;28;20053;-87
2024/01/13 04:26:45;;;;;;;0.00;0.00;;;3.20;99.90;;;;;;5087929;28;20615;-86
2024/01/13 04:29:10;;;;;;;0.00;0.00;;;3.10;99.90;;;;;;5066591;28;20054;-86
2024/01/13 04:31:36;;;;;;;0.00;0.00;;;3.20;99.90;;;;;;5091473;28;20647;-86
2024/01/13 04:34:01;;;;;;;0.00;0.00;;;3.20;99.90;;;;;;5089325;28;20559;-86
2024/01/13 04:36:27;;;;;;;0.00;0.00;;;3.10;99.90;;;;;;5090222;28;20126;-86
2024/01/13 04:38:54;;;;;;;0.10;0.10;;;3.10;99.90;;;;;;5089610;28;20576;-86
2024/01/13 04:41:20;;;;;;;0.00;0.00;;;3.10;99.90;;;;;;5090852;28;20086;-87
2024/01/13 04:43:45;;;;;;;0.00;0.00;;;3.10;99.90;;;;;;5090855;28;20079;-87
2024/01/13 04:46:12;;;;;;;0.00;0.00;;;3.20;99.90;;;;;;5064051;28;20474;-87
2024/01/13 04:48:39;;;;;;;0.00;0.00;;;3.10;99.90;;;;;;5089499;28;20047;-87
2024/01/13 04:51:05;;;;;;;0.00;0.00;;;3.20;99.90;;;;;;5050116;28;20388;-86
2024/01/13 04:53:30;;;;;;;6.70;1.17;;;3.20;99.90;;;;;;5069368;28;20075;-87
2024/01/13 04:55:57;;;;;;;0.22;0.20;;;3.10;99.90;;;;;;5064341;28;20051;-87
2024/01/13 04:58:22;;;;;;;0.00;0.00;;;3.20;99.90;;;;;;5072255;28;20425;-87
2024/01/13 05:00:48;;;;;;;0.03;0.03;;;3.20;99.90;;;;;;5064532;28;20119;-87
2024/01/13 05:03:14;;;;;;;0.00;0.00;;;3.20;99.90;;;;;;5090500;28;20105;-87
2024/01/13 05:05:39;;;;;;;0.00;0.00;;;3.20;99.90;;;;;;5090028;28;20124;-87
2024/01/13 05:08:05;;;;;;;0.10;0.10;;;3.20;99.90;;;;;;5090536;28;20068;-87
2024/01/13 05:10:31;;;;;;;0.10;0.08;;;3.20;99.90;;;;;;5085445;28;20040;-86
2024/01/13 05:12:56;;;;;;;0.00;0.00;;;3.20;99.90;;;;;;5052310;28;20542;-86
2024/01/13 05:15:22;;;;;;;0.10;0.10;;;3.20;99.90;;;;;;5089133;28;20046;-87
2024/01/13 05:17:48;;;;;;;0.00;0.00;;;3.20;99.90;;;;;;5049513;28;20040;-87
2024/01/13 05:20:14;;;;;;;0.00;0.00;;;3.20;99.90;;;;;;5063541;28;20044;-87
2024/01/13 05:22:39;;;;;;;0.00;0.00;;;3.20;99.90;;;;;;5092664;28;20044;-87
2024/01/13 05:25:05;;;;;;;0.05;0.05;;;3.10;99.90;;;;;;5060410;28;20052;-86
2024/01/13 05:27:31;;;;;;;0.20;0.20;;;3.10;99.90;;;;;;5084909;28;20411;-86
2024/01/13 05:29:57;;;;;;;0.55;0.30;;;3.20;99.90;;;;;;5064762;28;20537;-86
2024/01/13 05:32:22;;;;;;;1.55;0.57;;;3.10;99.90;;;;;;5093191;28;20054;-86
2024/01/13 05:34:48;;;;;;;0.08;0.08;;;3.10;99.90;;;;;;5098779;28;20051;-86
2024/01/13 05:37:13;;;;;;;0.00;0.00;;;3.10;99.90;;;;;;5087503;28;20047;-86
2024/01/13 05:39:39;;;;;;;0.00;0.00;;;3.10;99.90;;;;;;5084981;28;20044;-86
2024/01/13 05:42:07;;;;;;;0.45;0.45;;;3.10;99.90;;;;;;5074122;28;20047;-86
2024/01/13 05:44:32;;;;;;;2.65;1.27;;;3.20;99.90;;;;;;5088629;28;20527;-86
2024/01/13 05:46:58;;;;;;;0.00;0.00;;;3.20;99.90;;;;;;5092253;28;20079;-86
2024/01/13 05:49:24;;;;;;;2.50;0.47;;;3.20;99.90;;;;;;5093374;28;20057;-86
2024/01/13 05:51:49;;;;;;;0.00;0.00;;;3.20;99.90;;;;;;5057871;28;20397;-87
2024/01/13 05:54:15;;;;;;;0.00;0.00;;;3.20;99.90;;;;;;5075307;28;20040;-86
2024/01/13 05:56:41;;;;;;;0.00;0.00;;;3.20;99.90;;;;;;5093146;28;20055;-86
2024/01/13 05:59:07;;;;;;;0.15;0.15;;;3.20;99.90;;;;;;5091748;28;20047;-87
2024/01/13 06:01:32;;;;;;;0.00;0.00;;;3.20;99.90;;;;;;5089963;28;20036;-86
2024/01/13 06:03:58;;;;;;;0.10;0.10;;;3.20;99.90;;;;;;5089292;28;20406;-86
2024/01/13 06:06:24;;;;;;;0.00;0.00;;;3.20;99.90;;;;;;5093716;28;20055;-86
2024/01/13 06:08:50;;;;;;;0.00;0.00;;;3.10;99.90;;;;;;5099744;28;20516;-86
2024/01/13 06:11:15;;;;;;;0.00;0.00;;;3.10;99.90;;;;;;5102298;28;20042;-86
2024/01/13 06:13:41;;;;;;;0.00;0.00;;;3.20;99.90;;;;;;5067332;28;20036;-86
2024/01/13 06:16:08;;;;;;;0.20;0.20;;;3.20;99.90;;;;;;5061495;28;20508;-86
2024/01/13 06:18:34;;;;;;;0.00;0.00;;;3.20;99.90;;;;;;5099941;28;20051;-86
2024/01/13 06:21:01;;;;;;;0.00;0.00;;;3.20;99.90;;;;;;5097056;28;20553;-86
2024/01/13 06:23:26;;;;;;;0.00;0.00;;;3.20;99.90;;;;;;5095880;28;20966;-86
2024/01/13 06:25:52;;;;;;;0.00;0.00;;;3.20;99.90;;;;;;5090455;28;20036;-86
2024/01/13 06:28:18;;;;;;;0.08;0.08;;;3.30;99.90;;;;;;5090287;28;20208;-86
2024/01/13 06:30:43;;;;;;;0.00;0.00;;;3.20;99.90;;;;;;5068932;28;20044;-86
2024/01/13 06:33:09;;;;;;;0.20;0.20;;;3.20;99.90;;;;;;5099761;28;20059;-86
2024/01/13 06:35:35;;;;;;;0.00;0.00;;;3.20;99.90;;;;;;5087520;28;20126;-86
2024/01/13 06:38:00;;;;;;;0.00;0.00;;;3.20;99.90;;;;;;5066934;28;20044;-86
2024/01/13 06:40:26;;;;;;;0.10;0.10;;;3.30;99.90;;;;;;5066525;28;20040;-86
2024/01/13 06:42:51;;;;;;;0.17;0.13;;;3.20;99.90;;;;;;5086772;28;20480;-86
2024/01/13 06:45:17;;;;;;;0.03;0.03;;;3.20;99.90;;;;;;5089093;28;20881;-86
2024/01/13 06:47:42;;;;;;;0.00;0.00;;;3.20;99.90;;;;;;5096371;28;20044;-86
2024/01/13 06:50:09;;;;;;;0.00;0.00;;;3.30;93.00;;;;;;5086375;28;20056;-86
2024/01/13 06:52:34;;;;;;;0.00;0.00;;;3.30;75.20;;;;;;5093222;28;20051;-86
2024/01/13 06:55:01;;;;;;;0.00;0.00;;;3.20;55.00;;;;;;5065715;28;20044;-86
2024/01/13 06:57:27;;;;;;;0.00;0.00;;;3.20;70.90;;;;;;5073200;28;20128;-86
2024/01/13 06:59:53;;;;;;;0.00;0.00;;;3.10;49.90;;;;;;5092565;28;20175;-86
2024/01/13 07:02:18;;;;;;;0.00;0.00;;;3.20;46.10;;;;;;5093178;28;20055;-86
2024/01/13 07:04:45;;;;;;;0.00;0.00;;;3.10;26.90;;;;;;5065772;28;20052;-86
2024/01/13 07:07:11;;;;;;;0.00;0.00;;;3.20;80.70;;;;;;5101673;28;20081;-86
2024/01/13 07:09:37;;;;;;;0.00;0.00;;;3.20;36.00;;;;;;5092598;28;20149;-86
2024/01/13 07:12:02;;;;;;;0.10;0.10;;;3.10;9.80;;;;;;5066546;28;20460;-86
2024/01/13 07:14:30;;;;;;;0.45;0.45;;;3.10;32.00;;;;;;5090208;28;20055;-86
2024/01/13 07:16:56;;;;;;;0.00;0.00;;;3.10;37.50;;;;;;5060637;28;20044;-86
2024/01/13 07:19:22;;;;;;;0.10;0.10;;;3.10;46.10;;;;;;5048134;28;20049;-87
2024/01/13 07:21:47;;;;;;;0.00;0.00;;;3.10;69.80;;;;;;5085797;28;20327;-86
2024/01/13 07:24:13;;;;;;;0.00;0.00;;;3.20;92.70;;;;;;5060757;28;20402;-87
2024/01/13 07:26:39;;;;;;;0.20;0.20;;;3.10;79.40;;;;;;5037927;28;20052;-86
2024/01/13 07:29:05;;;;;;;0.20;0.20;;;3.10;97.80;;;;;;5084951;28;20044;-86
2024/01/13 07:31:31;;;;;;;0.00;0.00;;;3.20;99.90;;;;;;5082631;28;20050;-87
2024/01/13 07:33:56;;;;;;;0.35;0.35;;;3.10;97.10;;;;;;5055383;28;20068;-86
2024/01/13 07:36:22;;;;;;;0.00;0.00;;;3.20;99.90;;;;;;5050927;28;20055;-86
2024/01/13 07:38:48;;;;;;;0.20;0.20;;;3.20;99.90;;;;;;5090387;28;20421;-86
2024/01/13 07:41:13;;;;;;;0.00;0.00;;;3.20;99.90;;;;;;5055814;28;20417;-86
2024/01/13 07:43:39;;;;;;;0.00;0.00;;;3.20;99.90;;;;;;5062993;28;20051;-87
2024/01/13 07:46:05;;;;;;;0.00;0.00;;;3.20;99.90;;;;;;5081572;28;20466;-86
2024/01/13 07:48:31;;;;;;;0.17;0.17;;;3.20;99.90;;;;;;5042871;28;20040;-86
2024/01/13 07:50:56;;;;;;;1.42;0.57;;;3.20;99.90;;;;;;5054615;28;20383;-86
2024/01/13 07:53:22;;;;;;;0.00;0.00;;;3.20;99.90;;;;;;5069756;28;20124;-86
2024/01/13 07:55:47;;;;;;;1.25;0.63;;;3.20;99.90;;;;;;5090059;28;20163;-86
2024/01/13 07:58:13;;;;;;;0.00;0.00;;;3.30;99.90;;;;;;5092867;28;20050;-86
2024/01/13 08:00:39;;;;;;;0.00;0.00;;;3.20;99.90;;;;;;5082393;28;20036;-86
2024/01/13 08:03:04;;;;;;;0.10;0.10;;;3.20;99.90;;;;;;5057002;28;20172;-87
2024/01/13 08:05:33;;;;;;;0.75;0.65;;;3.30;98.10;;;;;;5061713;28;20503;-87
2024/01/13 08:07:59;;;;;;;1.27;0.88;;;3.20;85.00;;;;;;5063183;28;20052;-87
2024/01/13 08:10:24;;;;;;;0.00;0.00;;;3.30;97.40;;;;;;5065641;28;20055;-86
2024/01/13 08:12:50;;;;;;;0.00;0.00;;;3.30;82.70;;;;;;5093033;28;20092;-87
2024/01/13 08:15:15;;;;;;;0.55;0.55;;;3.30;59.30;;;;;;5092376;28;20044;-88
2024/01/13 08:17:41;;;;;;;0.00;0.00;;;3.30;93.50;;;;;;5070262;28;20059;-87
2024/01/13 08:20:09;;;;;;;0.20;0.20;;;3.30;71.60;;;;;;5091892;28;20082;-86
2024/01/13 08:22:35;;;;;;;0.30;0.30;;;3.30;94.30;;;;;;5095286;28;20044;-87
2024/01/13 08:25:00;;;;;;;0.00;0.00;;;3.30;95.60;;;;;;5080127;28;20055;-86
2024/01/13 08:27:26;;;;;;;1.02;0.43;;;3.30;84.20;;;;;;5065441;28;20055;-87
2024/01/13 08:29:52;;;;;;;0.10;0.10;;;3.40;99.90;;;;;;5097063;28;20502;-87
2024/01/13 08:32:18;;;;;;;0.45;0.45;;;3.40;99.90;;;;;;5088009;28;20402;-87
2024/01/13 08:34:43;;;;;;;1.67;0.75;;;3.40;99.90;;;;;;5061617;28;20044;-87
2024/01/13 08:37:09;;;;;;;3.10;1.08;;;3.40;93.40;;;;;;5062660;28;20112;-87
2024/01/13 08:39:35;;;;;;;1.73;1.60;;;3.40;45.40;;;;;;5045853;28;20585;-87
2024/01/13 08:42:01;;;;;;;0.47;0.47;;;3.40;74.80;;;;;;5043341;28;20410;-87
2024/01/13 08:44:27;;;;;;;0.57;0.57;;;3.50;31.20;;;;;;5062269;28;20119;-87
2024/01/13 08:46:52;;;;;;;0.50;0.50;;;3.40;12.80;;;;;;5090598;28;20052;-87
2024/01/13 08:49:18;;;;;;;3.20;1.17;;;3.40;16.60;;;;;;5087739;28;20051;-87
2024/01/13 08:51:43;;;;;;;0.68;0.68;;;3.40;1.00;;;;;;5092790;28;20465;-87
2024/01/13 08:54:09;;;;;;;1.10;0.40;;;3.40;1.00;;;;;;5057400;28;20048;-87
2024/01/13 08:56:35;;;;;;;0.35;0.35;;;3.40;1.00;;;;;;5073136;28;20040;-87
2024/01/13 08:59:02;;;;;;;1.42;1.17;;;3.40;1.00;;;;;;5053950;28;20155;-87
2024/01/13 09:01:28;;;;;;;1.02;0.98;;;3.50;1.00;;;;;;5037059;28;20044;-87
2024/01/13 09:03:53;;;;;;;1.63;1.33;;;3.50;1.00;;;;;;5052925;28;20123;-87
2024/01/13 09:06:19;;;;;;;2.83;1.45;;;3.50;1.00;;;;;;5082619;28;20589;-87
2024/01/13 09:08:45;;;;;;;1.58;1.48;;;3.50;1.00;;;;;;5067977;28;20047;-87
2024/01/13 09:11:10;;;;;;;2.50;2.30;;;3.50;99.90;;;;;;5039226;28;20139;-87
2024/01/13 09:13:36;;;;;;;5.68;2.22;;;3.50;99.90;;;;;;5054029;28;20040;-87
2024/01/13 09:16:02;;;;;;;2.65;2.30;;;3.50;99.90;;;;;;5053282;28;20055;-87
2024/01/13 09:18:28;;;;;;;1.10;0.98;;;3.50;99.90;;;;;;5090524;28;20454;-87
2024/01/13 09:20:53;;;;;;;4.93;3.38;;;3.50;99.90;;;;;;5048568;28;20091;-87
2024/01/13 09:23:22;;;;;;;1.15;1.05;;;3.60;99.90;;;;;;5025904;28;20067;-87
2024/01/13 09:25:50;;;;;;;2.85;2.42;;;3.70;99.90;;;;;;5038402;28;20094;-87
2024/01/13 09:28:16;;;;;;;3.83;2.72;;;3.60;99.90;;;;;;5045527;28;20123;-87
2024/01/13 09:30:42;;;;;;;1.65;1.25;;;3.70;99.90;;;;;;5061875;28;20044;-87
2024/01/13 09:33:08;;;;;;;0.52;0.52;;;3.70;99.90;;;;;;5061510;28;20601;-87
2024/01/13 09:35:33;;;;;;;0.80;0.80;;;3.60;6.00;;;;;;5045235;28;20052;-87
2024/01/13 09:37:59;;;;;;;3.30;3.00;;;3.60;1.00;;;;;;5053182;28;20046;-87
2024/01/13 09:40:28;;;;;;;1.92;1.63;;;3.60;1.00;;;;;;5088072;28;20048;-87
2024/01/13 09:43:22;;;;;;;3.50;3.20;;;3.60;99.90;;;;;;5051148;28;20054;-87
2024/01/13 09:45:49;;;;;;;16.42;3.13;;;3.60;99.90;;;;;;5088006;28;20457;-87
2024/01/13 09:48:20;;;;;;;1.23;1.15;;;3.60;99.90;;;;;;5087582;28;20531;-87
2024/01/13 09:50:52;;;;;;;3.15;1.77;;;3.50;99.90;;;;;;5035203;28;20044;-87
2024/01/13 09:53:47;;;;;;;2.42;2.28;;;3.50;71.90;;;;;;5075971;28;20067;-87
2024/01/13 09:56:22;;;;;;;0.60;0.60;;;3.50;99.90;;;;;;5070200;28;20124;-87
2024/01/13 09:58:48;;;;;;;3.00;2.45;;;3.60;99.90;;;;;;5055885;28;20118;-87
2024/01/13 10:01:18;;;;;;;2.75;1.60;;;3.60;33.40;;;;;;5052752;28;20039;-87
2024/01/13 10:03:47;;;;;;;2.08;1.88;;;3.60;49.70;;;;;;5073228;28;20093;-87
2024/01/13 10:06:20;;;;;;;1.17;0.98;;;3.70;80.30;;;;;;5059727;28;20063;-87
2024/01/13 10:08:49;;;;;;;4.53;4.13;;;3.70;10.10;;;;;;5034781;28;20436;-87
2024/01/13 10:11:18;;;;;;;1.33;1.27;;;3.70;39.70;;;;;;5036078;28;20051;-87
2024/01/13 10:14:04;;;;;;;3.83;3.38;;;3.90;1.00;;;;;;5076643;28;20396;-87
2024/01/13 10:16:31;;;;;;;4.40;3.45;;;3.70;1.00;;;;;;5046079;28;20102;-87
2024/01/13 10:19:04;;;;;;;2.75;2.47;;;3.80;1.00;;;;;;5054454;28;20105;-88
2024/01/13 10:21:33;;;;;;;1.73;1.33;;;3.80;1.00;;;;;;5072833;28;20482;-88
2024/01/13 10:24:05;;;;;;;2.88;1.60;;;3.70;99.90;;;;;;5082778;28;20131;-88
2024/01/13 10:26:32;;;;;;;2.25;2.05;;;3.70;99.90;;;;;;5039620;28;20402;-88
2024/01/13 10:28:58;;;;;;;4.60;2.78;;;3.70;99.90;;;;;;5057022;28;20864;-88
2024/01/13 10:31:25;;;;;;;3.83;3.53;;;3.80;99.90;;;;;;5057032;28;20055;-88
2024/01/13 10:33:51;;;;;;;1.58;1.48;;;3.80;1.00;;;;;;5056328;28;20489;-88
2024/01/13 10:36:22;;;;;;;3.45;2.65;;;3.80;99.90;;;;;;5076977;28;20047;-88
2024/01/13 10:38:49;;;;;;;2.35;1.15;;;4.30;99.90;;;;;;5038268;28;20402;-88
2024/01/13 10:41:16;;;;;;;2.45;2.20;;;3.80;1.00;;;;;;5078893;28;20121;-88
2024/01/13 10:43:43;;;;;;;2.03;1.83;;;3.80;1.00;;;;;;5054250;28;20055;-88
2024/01/13 10:46:14;;;;;;;1.50;1.40;;;3.80;1.00;;;;;;5051845;28;20490;-88
2024/01/13 10:48:45;;;;;;;0.90;0.90;;;3.80;1.00;;;;;;5073581;28;20040;-88
2024/01/13 10:51:22;;;;;;;2.22;1.70;;;5.30;1.00;;;;;;5058471;28;20560;-88
2024/01/13 10:53:49;;;;;;;1.65;1.55;;;3.90;1.00;;;;;;5079038;28;20122;-89
2024/01/13 10:56:16;;;;;;;1.83;1.65;;;3.90;1.00;;;;;;5059062;28;20284;-89
2024/01/13 10:58:44;;;;;;;2.28;2.08;;;3.90;1.00;;;;;;5038694;28;20039;-88
2024/01/13 11:01:10;;;;;;;3.35;2.63;;;3.90;1.00;;;;;;5060407;28;20390;-88
2024/01/13 11:03:37;;;;;;;3.33;3.03;;;4.00;1.00;;;;;;5059280;28;20948;-88
2024/01/13 11:06:03;;;;;;;1.90;1.77;;;4.10;1.00;;;;;;5042314;28;20084;-88
2024/01/13 11:08:29;;;;;;;6.85;2.47;;;4.10;1.00;;;;;;5060860;28;20094;-88
2024/01/13 11:10:56;;;;;;;2.42;2.22;;;4.50;99.90;;;;;;5042882;28;20048;-88
2024/01/13 11:13:29;;;;;;;2.45;2.25;;;4.10;1.00;;;;;;5084410;28;20048;-88
2024/01/13 11:16:04;;;;;;;1.60;1.45;;;4.20;1.00;;;;;;5078191;28;20379;-88
2024/01/13 11:18:51;;;;;;;0.65;0.65;;;4.20;1.00;;;;;;5061689;28;20143;-88
2024/01/13 11:21:27;;;;;;;3.72;3.42;;;4.30;1.00;;;;;;5056715;28;20079;-88
2024/01/13 11:23:53;;;;;;;1.80;1.40;;;4.30;1.00;;;;;;5078637;28;20072;-87
2024/01/13 11:26:21;;;;;;;0.98;0.88;;;4.30;1.00;;;;;;5060360;28;20553;-87
2024/01/13 11:28:52;;;;;;;1.77;1.67;;;4.40;99.90;;;;;;5063449;28;20040;-87
2024/01/13 11:31:41;;;;;;;1.23;1.17;;;4.40;99.90;;;;;;5051600;28;20048;-87
2024/01/13 11:34:08;;;;;;;0.50;0.50;;;4.40;99.90;;;;;;5058757;28;20077;-87
2024/01/13 11:36:35;;;;;;;1.33;1.23;;;4.50;99.90;;;;;;5045415;28;20077;-88
2024/01/13 11:39:03;;;;;;;1.63;1.52;;;4.70;99.90;;;;;;5057922;28;20131;-88
2024/01/13 11:41:41;;;;;;;1.20;1.10;;;4.60;99.90;;;;;;5057161;28;20483;-88
2024/01/13 11:44:08;;;;;;;1.80;0.68;;;4.70;99.90;;;;;;5061263;28;20405;-88
2024/01/13 11:46:39;;;;;;;2.65;2.00;;;4.70;99.90;;;;;;5060731;28;20110;-87
2024/01/13 11:49:07;;;;;;;5.70;2.15;;;4.70;99.90;;;;;;5066223;28;20039;-87
2024/01/13 11:52:06;;;;;;;5.05;2.15;;;4.60;99.90;;;;;;5040477;28;20044;-87
2024/01/13 11:54:34;;;;;;;0.57;0.57;;;4.60;99.90;;;;;;4973477;28;20902;-88
2024/01/13 11:57:06;;;;;;;2.88;1.75;;;4.60;99.90;;;;;;5051519;28;20209;-88
2024/01/13 11:59:32;;;;;;;2.97;2.78;;;4.50;99.90;;;;;;5066979;28;20363;-88
2024/01/13 12:01:58;;;;;;;1.38;1.27;;;4.50;99.90;;;;;;5062364;28;20131;-88
2024/01/13 12:04:29;;;;;;;0.73;0.73;;;4.50;99.90;;;;;;5040492;28;20458;-88
2024/01/13 12:06:55;;;;;;;8.65;2.63;;;4.50;1.00;;;;;;5062211;28;20048;-88
2024/01/13 12:09:22;;;;;;;3.58;2.58;;;4.60;99.90;;;;;;5065642;28;20052;-88
2024/01/13 12:11:56;;;;;;;1.33;1.23;;;4.50;99.90;;;;;;5086362;28;20059;-87
2024/01/13 12:14:28;;;;;;;0.55;0.55;;;4.50;99.90;;;;;;5078832;28;20553;-87
2024/01/13 12:16:55;;;;;;;1.42;1.35;;;4.50;1.00;;;;;;5056944;28;20107;-87
2024/01/13 12:19:21;;;;;;;1.15;1.05;;;4.50;99.90;;;;;;5056953;28;20071;-88
2024/01/13 12:21:50;;;;;;;0.93;0.93;;;4.50;1.00;;;;;;5058454;28;20478;-88
2024/01/13 12:24:16;;;;;;;1.65;1.42;;;4.50;1.00;;;;;;5070885;28;20089;-88
2024/01/13 12:26:41;;;;;;;3.78;3.35;;;4.40;1.00;;;;;;5059520;28;20047;-88
2024/01/13 12:29:08;;;;;;;5.80;0.77;;;4.50;1.00;;;;;;5054320;28;20478;-88
2024/01/13 12:31:34;;;;;;;1.00;0.88;;;4.50;1.00;;;;;;5060152;28;20045;-88
2024/01/13 12:34:14;;;;;;;0.98;0.98;;;4.50;1.00;;;;;;5058325;28;20098;-88
2024/01/13 12:36:40;;;;;;;0.13;0.13;;;4.50;39.60;;;;;;5050487;28;20372;-88
2024/01/13 12:46:57;;;;;;;0.68;0.68;;;5.40;99.90;;;;;;5074622;28;20038;-89
2024/01/13 12:53:31;;;;;;;1.02;0.95;;;4.30;99.90;;;;;;5061419;28;20090;-89
2024/01/13 12:56:35;;;;;;;19.60;1.83;;;5.20;99.90;;;;;;5054174;28;20048;-88
2024/01/13 13:03:47;;;;;;;0.85;0.60;;;5.40;99.90;;;;;;4959249;28;20057;-89
2024/01/13 13:06:13;;;;;;;1.50;1.23;;;4.10;99.90;;;;;;4949160;28;20094;-88
2024/01/13 13:08:42;;;;;;;0.20;0.20;;;4.60;99.90;;;;;;5027021;28;20052;-89
2024/01/13 13:11:16;;;;;;;0.30;0.30;;;4.60;99.90;;;;;;5074912;28;20144;-89
2024/01/13 13:13:47;;;;;;;0.28;0.28;;;5.70;99.90;;;;;;5044836;28;20537;-90
2024/01/13 13:16:14;;;;;;;0.65;0.65;;;4.60;99.90;;;;;;5060222;28;20598;-89